createdAt,value
2018-06-27T00:01:15.813Z,14.10
2018-06-27T00:03:43.647Z,14.20
2018-06-27T00:06:11.444Z,14.30
2018-06-27T00:08:39.284Z,14.40
2018-06-27T00:11:07.191Z,14.50
2018-06-27T00:13:35.023Z,14.50
2018-06-27T00:16:02.828Z,14.50
2018-06-27T00:18:30.752Z,14.50
2018-06-27T00:20:58.514Z,14.60
2018-06-27T00:23:26.329Z,14.50
2018-06-27T00:25:54.123Z,14.50
2018-06-27T00:28:21.991Z,14.40
2018-06-27T00:30:50.817Z,14.40
2018-06-27T00:33:18.598Z,14.40
2018-06-27T00:35:46.493Z,14.40
2018-06-27T00:38:16.031Z,14.40
2018-06-27T00:40:44.267Z,14.30
2018-06-27T00:43:38.152Z,14.30
2018-06-27T00:46:05.990Z,14.20
2018-06-27T00:48:33.818Z,14.10
2018-06-27T00:51:08.929Z,14.10
2018-06-27T00:53:54.655Z,14.10
2018-06-27T00:56:22.498Z,14.10
2018-06-27T00:58:50.413Z,14.10
2018-06-27T01:01:18.209Z,14.00
2018-06-27T01:03:46.041Z,14.00
2018-06-27T01:06:14.897Z,14.00
2018-06-27T01:08:42.761Z,14.00
2018-06-27T01:11:10.636Z,13.90
2018-06-27T01:13:38.522Z,13.90
2018-06-27T01:16:06.364Z,13.80
2018-06-27T01:18:35.239Z,13.80
2018-06-27T01:21:03.132Z,13.80
2018-06-27T01:23:30.858Z,13.80
2018-06-27T01:25:58.681Z,13.80
2018-06-27T01:28:26.513Z,13.70
2018-06-27T01:30:54.329Z,13.70
2018-06-27T01:33:22.128Z,13.60
2018-06-27T01:35:50.017Z,13.60
2018-06-27T01:38:17.858Z,13.60
2018-06-27T01:40:45.663Z,13.60
2018-06-27T01:43:13.551Z,13.60
2018-06-27T01:45:41.457Z,13.50
2018-06-27T01:48:09.290Z,13.40
2018-06-27T01:50:37.320Z,13.40
2018-06-27T01:53:06.145Z,13.30
2018-06-27T01:55:33.969Z,13.30
2018-06-27T01:58:01.826Z,13.30
2018-06-27T02:00:29.617Z,13.30
2018-06-27T02:02:57.409Z,13.20
2018-06-27T02:05:25.217Z,13.20
2018-06-27T02:07:53.036Z,13.20
2018-06-27T02:10:20.884Z,13.20
2018-06-27T02:12:48.754Z,13.20
2018-06-27T02:15:16.577Z,13.20
2018-06-27T02:17:44.408Z,13.20
2018-06-27T02:20:14.224Z,13.20
2018-06-27T02:22:42.114Z,13.10
2018-06-27T02:25:09.950Z,13.10
2018-06-27T02:27:37.885Z,13.10
2018-06-27T02:30:05.917Z,13.00
2018-06-27T02:32:33.768Z,13.00
2018-06-27T02:35:01.588Z,12.90
2018-06-27T02:37:43.323Z,12.80
2018-06-27T02:40:12.845Z,12.80
2018-06-27T02:45:21.744Z,12.80
2018-06-27T02:47:50.577Z,12.90
2018-06-27T02:50:18.625Z,12.80
2018-06-27T02:52:46.487Z,12.70
2018-06-27T02:55:14.296Z,12.60
2018-06-27T02:57:43.168Z,12.50
2018-06-27T03:00:14.695Z,12.40
2018-06-27T03:02:44.157Z,12.40
2018-06-27T03:05:12.459Z,12.40
2018-06-27T03:07:40.306Z,12.50
2018-06-27T03:10:08.101Z,12.50
2018-06-27T03:12:35.935Z,12.50
2018-06-27T03:15:04.457Z,12.40
2018-06-27T03:17:32.356Z,12.40
2018-06-27T03:20:00.158Z,12.40
2018-06-27T03:22:27.982Z,12.50
2018-06-27T03:24:55.813Z,12.60
2018-06-27T03:27:24.900Z,12.60
2018-06-27T03:29:52.744Z,12.60
2018-06-27T03:32:20.552Z,12.60
2018-06-27T03:34:48.336Z,12.50
2018-06-27T03:37:16.679Z,12.50
2018-06-27T03:39:53.649Z,12.40
2018-06-27T03:42:21.560Z,12.40
2018-06-27T03:44:49.396Z,12.30
2018-06-27T03:47:17.267Z,12.30
2018-06-27T03:49:45.141Z,12.20
2018-06-27T03:52:12.958Z,12.20
2018-06-27T03:54:40.748Z,12.20
2018-06-27T03:57:08.616Z,12.20
2018-06-27T03:59:36.443Z,12.20
2018-06-27T04:02:04.238Z,12.20
2018-06-27T04:04:32.060Z,12.30
2018-06-27T04:06:59.930Z,12.40
2018-06-27T04:09:27.752Z,12.40
2018-06-27T04:11:55.544Z,12.50
2018-06-27T04:14:23.443Z,12.50
2018-06-27T04:16:51.272Z,12.50
2018-06-27T04:19:19.049Z,12.60
2018-06-27T04:21:47.935Z,12.60
2018-06-27T04:24:15.763Z,12.70
2018-06-27T04:26:43.535Z,12.80
2018-06-27T04:29:11.338Z,12.90
2018-06-27T04:31:40.124Z,13.10
2018-06-27T04:34:07.908Z,13.30
2018-06-27T04:36:35.766Z,13.30
2018-06-27T04:39:06.026Z,13.50
2018-06-27T04:41:33.937Z,13.60
2018-06-27T04:44:01.795Z,13.70
2018-06-27T04:46:29.727Z,13.80
2018-06-27T04:48:57.701Z,13.90
2018-06-27T04:51:25.698Z,14.00
2018-06-27T04:53:53.507Z,14.10
2018-06-27T04:56:21.302Z,14.20
2018-06-27T04:58:49.135Z,14.20
2018-06-27T05:01:17.047Z,14.30
2018-06-27T05:03:44.972Z,14.40
2018-06-27T05:06:12.812Z,14.50
2018-06-27T05:08:41.633Z,14.50
2018-06-27T05:11:09.486Z,14.60
2018-06-27T05:13:37.359Z,14.60
2018-06-27T05:16:05.319Z,14.80
2018-06-27T05:18:33.199Z,14.90
2018-06-27T05:21:01.062Z,15.00
2018-06-27T05:23:29.852Z,15.10
2018-06-27T05:25:57.685Z,15.20
2018-06-27T05:28:25.528Z,15.20
2018-06-27T05:30:53.400Z,15.30
2018-06-27T05:33:21.451Z,15.50
2018-06-27T05:35:49.345Z,15.60
2018-06-27T05:38:17.123Z,15.60
2018-06-27T05:40:45.058Z,15.70
2018-06-27T05:43:12.956Z,15.80
2018-06-27T05:48:31.051Z,16.10
2018-06-27T05:50:58.919Z,16.10
2018-06-27T05:53:26.810Z,16.30
2018-06-27T05:55:54.618Z,16.60
2018-06-27T05:58:22.455Z,16.60
2018-06-27T06:00:50.195Z,16.60
2018-06-27T06:03:18.018Z,16.70
2018-06-27T06:05:45.775Z,16.80
2018-06-27T06:08:13.574Z,17.00
2018-06-27T06:10:41.341Z,17.10
2018-06-27T06:13:09.163Z,17.20
2018-06-27T06:15:37.108Z,17.00
2018-06-27T06:18:05.111Z,16.90
2018-06-27T06:20:33.129Z,17.10
2018-06-27T06:23:01.120Z,17.50
2018-06-27T06:25:29.184Z,17.60
2018-06-27T06:27:57.171Z,17.70
2018-06-27T06:30:25.105Z,17.80
2018-06-27T06:32:53.184Z,17.40
2018-06-27T06:35:21.157Z,17.80
2018-06-27T06:38:32.307Z,17.80
2018-06-27T06:41:00.228Z,17.70
2018-06-27T06:43:28.090Z,18.00
2018-06-27T06:45:56.006Z,17.90
2018-06-27T06:48:23.853Z,17.60
2018-06-27T06:50:51.691Z,17.90
2018-06-27T06:53:19.557Z,18.40
2018-06-27T06:55:47.419Z,18.70
2018-06-27T06:58:15.289Z,18.80
2018-06-27T07:00:43.113Z,18.60
2018-06-27T07:03:10.916Z,18.80
2018-06-27T07:05:38.748Z,19.00
2018-06-27T07:08:06.584Z,18.90
2018-06-27T07:10:34.430Z,18.80
2018-06-27T07:13:02.302Z,18.80
2018-06-27T07:15:30.111Z,19.00
2018-06-27T07:17:58.049Z,19.00
2018-06-27T07:22:59.579Z,19.20
2018-06-27T07:25:27.438Z,19.30
2018-06-27T07:27:55.307Z,19.30
2018-06-27T07:30:23.213Z,19.60
2018-06-27T07:32:51.265Z,19.80
2018-06-27T07:35:20.171Z,19.60
2018-06-27T07:37:48.028Z,19.70
2018-06-27T07:40:15.928Z,19.60
2018-06-27T07:42:43.861Z,19.80
2018-06-27T07:45:11.799Z,20.00
2018-06-27T07:47:39.663Z,20.30
2018-06-27T07:50:07.632Z,20.10
2018-06-27T07:52:36.529Z,20.20
2018-06-27T07:55:04.450Z,20.20
2018-06-27T07:57:32.263Z,20.30
2018-06-27T08:00:00.150Z,20.30
2018-06-27T08:02:29.038Z,20.50
2018-06-27T08:04:56.905Z,20.60
2018-06-27T08:07:24.753Z,20.90
2018-06-27T08:09:52.593Z,21.10
2018-06-27T08:12:20.538Z,21.00
2018-06-27T08:14:48.371Z,21.10
2018-06-27T08:17:17.309Z,21.30
2018-06-27T08:19:45.175Z,21.10
2018-06-27T08:22:13.100Z,21.20
2018-06-27T08:24:44.011Z,21.20
2018-06-27T08:27:11.844Z,21.10
2018-06-27T08:29:39.910Z,21.30
2018-06-27T08:32:07.753Z,21.00
2018-06-27T08:34:35.603Z,20.90
2018-06-27T08:37:03.434Z,21.20
2018-06-27T08:39:31.266Z,21.20
2018-06-27T08:41:59.040Z,20.70
2018-06-27T08:44:26.900Z,20.20
2018-06-27T08:46:54.700Z,20.50
2018-06-27T08:49:22.450Z,20.70
2018-06-27T08:51:50.184Z,21.00
2018-06-27T08:54:17.987Z,21.10
2018-06-27T08:56:45.751Z,21.40
2018-06-27T08:59:13.518Z,21.50
2018-06-27T09:01:41.326Z,21.50
2018-06-27T09:04:09.082Z,21.50
2018-06-27T09:06:37.123Z,21.70
2018-06-27T09:09:07.475Z,21.80
2018-06-27T09:15:13.489Z,21.80
2018-06-27T09:17:41.285Z,21.80
2018-06-27T09:20:09.037Z,21.60
2018-06-27T09:22:36.808Z,21.50
2018-06-27T09:25:04.623Z,21.40
2018-06-27T09:27:32.444Z,21.30
2018-06-27T09:30:26.609Z,21.40
2018-06-27T09:32:54.453Z,21.70
2018-06-27T09:35:22.297Z,21.70
2018-06-27T09:37:50.090Z,21.90
2018-06-27T09:40:18.971Z,21.90
2018-06-27T09:42:46.739Z,21.90
2018-06-27T09:45:14.613Z,22.00
2018-06-27T09:47:42.471Z,21.80
2018-06-27T09:50:10.592Z,22.00
2018-06-27T09:52:38.455Z,21.90
2018-06-27T09:55:06.431Z,21.90
2018-06-27T09:57:34.224Z,22.00
2018-06-27T10:00:02.053Z,22.10
2018-06-27T10:02:29.870Z,22.30
2018-06-27T10:04:57.741Z,22.30
2018-06-27T10:07:25.577Z,22.30
2018-06-27T10:09:53.377Z,22.60
2018-06-27T10:12:21.213Z,22.60
2018-06-27T10:14:49.068Z,22.50
2018-06-27T10:17:16.848Z,22.50
2018-06-27T10:19:44.647Z,22.50
2018-06-27T10:22:12.647Z,22.40
2018-06-27T10:24:41.971Z,22.70
2018-06-27T10:27:09.901Z,22.60
2018-06-27T10:29:37.773Z,22.70
2018-06-27T10:32:05.595Z,22.90
2018-06-27T10:34:33.505Z,22.60
2018-06-27T10:37:01.291Z,22.90
2018-06-27T10:39:29.114Z,23.30
2018-06-27T10:41:56.921Z,23.20
2018-06-27T10:44:24.814Z,23.10
2018-06-27T10:46:52.906Z,22.80
2018-06-27T10:49:20.863Z,23.20
2018-06-27T10:51:48.729Z,23.10
2018-06-27T10:54:16.662Z,23.20
2018-06-27T10:56:44.583Z,23.20
2018-06-27T10:59:12.627Z,23.50
2018-06-27T11:01:40.722Z,23.90
2018-06-27T11:04:08.488Z,23.60
2018-06-27T11:06:36.323Z,23.50
2018-06-27T11:09:06.651Z,23.50
2018-06-27T11:11:34.576Z,23.70
2018-06-27T11:14:02.384Z,23.50
2018-06-27T11:16:30.197Z,23.80
2018-06-27T11:18:58.065Z,23.60
2018-06-27T11:21:25.854Z,23.90
2018-06-27T11:23:53.690Z,23.80
2018-06-27T11:26:21.801Z,23.90
2018-06-27T11:28:49.683Z,24.10
2018-06-27T11:31:17.584Z,24.00
2018-06-27T11:33:45.436Z,24.20
2018-06-27T11:36:13.276Z,24.20
2018-06-27T11:38:41.067Z,24.30
2018-06-27T11:41:08.930Z,24.50
2018-06-27T11:43:36.976Z,24.50
2018-06-27T11:46:04.864Z,24.20
2018-06-27T11:48:32.878Z,24.00
2018-06-27T11:51:00.672Z,23.90
2018-06-27T11:53:28.464Z,24.00
2018-06-27T11:55:56.502Z,24.30
2018-06-27T11:58:24.344Z,24.70
2018-06-27T12:00:52.193Z,24.70
2018-06-27T12:03:19.995Z,24.40
2018-06-27T12:05:48.787Z,24.60
2018-06-27T12:08:16.651Z,24.50
2018-06-27T12:10:44.484Z,24.50
2018-06-27T12:13:12.298Z,24.80
2018-06-27T12:15:40.119Z,25.00
2018-06-27T12:18:08.367Z,25.20
2018-06-27T12:20:38.049Z,25.40
2018-06-27T12:23:05.842Z,24.80
2018-06-27T12:25:33.680Z,25.10
2018-06-27T12:28:01.497Z,25.00
2018-06-27T12:30:29.371Z,25.10
2018-06-27T12:32:57.137Z,25.50
2018-06-27T12:35:24.925Z,25.70
2018-06-27T12:37:52.680Z,25.80
2018-06-27T12:40:21.507Z,25.90
2018-06-27T12:42:49.290Z,25.80
2018-06-27T12:45:17.120Z,25.50
2018-06-27T12:47:44.936Z,25.60
2018-06-27T12:50:12.755Z,25.80
2018-06-27T12:52:56.041Z,25.50
2018-06-27T12:55:58.203Z,25.70
2018-06-27T12:58:26.025Z,26.30
2018-06-27T13:00:53.905Z,26.50
2018-06-27T13:03:21.871Z,26.10
2018-06-27T13:05:49.689Z,26.00
2018-06-27T13:08:17.488Z,26.10
2018-06-27T13:10:45.298Z,26.40
2018-06-27T13:13:13.071Z,26.80
2018-06-27T13:15:40.813Z,26.80
2018-06-27T13:18:09.390Z,26.70
2018-06-27T13:20:37.282Z,26.70
2018-06-27T13:23:05.103Z,26.40
2018-06-27T13:25:32.945Z,25.90
2018-06-27T13:28:00.871Z,26.30
2018-06-27T13:30:28.711Z,26.00
2018-06-27T13:35:57.437Z,26.50
2018-06-27T13:38:25.519Z,26.50
2018-06-27T13:40:53.425Z,26.30
2018-06-27T13:44:01.708Z,26.60
2018-06-27T13:46:29.532Z,26.70
2018-06-27T13:48:57.291Z,26.60
2018-06-27T13:51:25.053Z,26.80
2018-06-27T13:53:52.880Z,26.80
2018-06-27T13:56:20.641Z,27.00
2018-06-27T13:58:48.458Z,26.80
2018-06-27T14:01:16.257Z,26.60
2018-06-27T14:03:44.177Z,26.70
2018-06-27T14:06:12.028Z,26.90
2018-06-27T14:08:40.958Z,26.90
2018-06-27T14:11:08.687Z,27.10
2018-06-27T14:13:36.479Z,26.90
2018-06-27T14:16:04.551Z,26.90
2018-06-27T14:18:35.696Z,26.90
2018-06-27T14:21:03.612Z,26.80
2018-06-27T14:23:31.709Z,27.20
2018-06-27T14:25:59.567Z,27.30
2018-06-27T14:28:27.421Z,27.10
2018-06-27T14:30:55.327Z,27.20
2018-06-27T14:33:23.396Z,27.30
2018-06-27T14:35:51.351Z,27.70
2018-06-27T14:38:35.443Z,27.80
2018-06-27T14:44:48.364Z,27.30
2018-06-27T14:47:16.239Z,26.80
2018-06-27T14:49:44.870Z,26.80
2018-06-27T14:52:12.739Z,27.00
2018-06-27T14:54:40.509Z,26.90
2018-06-27T14:57:08.793Z,27.20
2018-06-27T14:59:36.757Z,27.70
2018-06-27T15:02:05.550Z,27.40
2018-06-27T15:04:33.499Z,28.10
2018-06-27T15:07:01.289Z,27.70
2018-06-27T15:09:29.280Z,27.80
2018-06-27T15:11:57.134Z,27.70
2018-06-27T15:14:24.951Z,27.40
2018-06-27T15:16:52.839Z,27.20
2018-06-27T15:19:20.731Z,27.20
2018-06-27T15:22:02.163Z,27.10
2018-06-27T15:24:30.056Z,27.70
2018-06-27T15:26:58.063Z,27.60
2018-06-27T15:29:25.900Z,27.40
2018-06-27T15:31:53.729Z,27.00
2018-06-27T15:34:21.682Z,27.40
2018-06-27T15:36:50.207Z,27.60
2018-06-27T15:39:18.145Z,27.40
2018-06-27T15:41:45.933Z,27.10
2018-06-27T15:44:14.530Z,27.40
2018-06-27T15:46:42.599Z,27.60
2018-06-27T15:49:10.731Z,27.40
2018-06-27T15:51:38.982Z,27.10
2018-06-27T15:54:06.950Z,26.40
2018-06-27T15:56:34.846Z,26.40
2018-06-27T15:59:02.735Z,26.20
2018-06-27T16:01:30.909Z,26.20
2018-06-27T16:03:58.902Z,26.20
2018-06-27T16:06:26.888Z,26.20
2018-06-27T16:08:54.673Z,26.20
2018-06-27T16:11:22.533Z,26.00
2018-06-27T16:13:50.549Z,26.30
2018-06-27T16:16:18.353Z,26.10
2018-06-27T16:18:46.168Z,25.80
2018-06-27T16:21:14.962Z,25.90
2018-06-27T16:23:42.779Z,25.70
2018-06-27T16:26:10.615Z,25.50
2018-06-27T16:28:38.495Z,25.10
2018-06-27T16:31:51.024Z,25.10
2018-06-27T16:34:26.056Z,25.00
2018-06-27T16:36:54.016Z,25.60
2018-06-27T16:39:21.858Z,25.60
2018-06-27T16:41:49.730Z,25.30
2018-06-27T16:44:17.557Z,25.00
2018-06-27T16:46:45.482Z,24.90
2018-06-27T16:49:13.308Z,24.90
2018-06-27T16:51:44.067Z,24.60
2018-06-27T16:54:12.057Z,24.80
2018-06-27T16:56:40.898Z,25.00
2018-06-27T16:59:08.780Z,25.00
2018-06-27T17:01:36.841Z,24.90
2018-06-27T17:04:04.675Z,24.70
2018-06-27T17:06:33.168Z,24.60
2018-06-27T17:09:06.978Z,24.90
2018-06-27T17:11:34.814Z,24.70
2018-06-27T17:14:02.741Z,24.60
2018-06-27T17:16:30.564Z,24.70
2018-06-27T17:18:59.465Z,24.40
2018-06-27T17:21:27.299Z,24.30
2018-06-27T17:23:55.269Z,24.40
2018-06-27T17:26:23.041Z,24.30
2018-06-27T17:28:50.833Z,23.70
2018-06-27T17:31:18.775Z,23.00
2018-06-27T17:33:46.644Z,22.60
2018-06-27T17:36:14.561Z,22.10
2018-06-27T17:38:42.329Z,21.90
2018-06-27T17:41:40.938Z,21.90
2018-06-27T17:46:58.801Z,21.60
2018-06-27T17:49:26.627Z,21.50
2018-06-27T17:51:54.444Z,21.50
2018-06-27T17:54:23.304Z,21.40
2018-06-27T17:56:51.134Z,21.40
2018-06-27T17:59:19.067Z,21.30
2018-06-27T18:01:46.985Z,21.30
2018-06-27T18:04:15.182Z,21.30
2018-06-27T18:06:43.113Z,21.40
2018-06-27T18:09:10.988Z,21.80
2018-06-27T18:11:39.448Z,22.10
2018-06-27T18:14:07.358Z,22.20
2018-06-27T18:16:35.450Z,21.80
2018-06-27T18:19:03.403Z,21.50
2018-06-27T18:21:31.570Z,21.20
2018-06-27T18:23:59.395Z,21.30
2018-06-27T18:26:27.212Z,21.70
2018-06-27T18:28:54.990Z,21.80
2018-06-27T18:31:22.864Z,21.50
2018-06-27T18:33:50.786Z,21.00
2018-06-27T18:36:18.658Z,20.70
2018-06-27T18:38:46.444Z,20.50
2018-06-27T18:41:14.380Z,20.40
2018-06-27T18:43:42.179Z,20.30
2018-06-27T18:46:37.071Z,20.30
2018-06-27T18:49:07.350Z,20.20
2018-06-27T18:51:48.410Z,20.10
2018-06-27T18:54:16.340Z,20.10
2018-06-27T18:56:44.215Z,20.00
2018-06-27T18:59:12.105Z,20.00
2018-06-27T19:01:39.975Z,20.00
2018-06-27T19:04:07.880Z,20.00
2018-06-27T19:06:35.738Z,19.90
2018-06-27T19:09:05.781Z,19.90
2018-06-27T19:11:33.655Z,19.80
2018-06-27T19:14:02.679Z,19.80
2018-06-27T19:16:30.522Z,19.80
2018-06-27T19:18:58.567Z,19.70
2018-06-27T19:21:26.563Z,19.70
2018-06-27T19:23:54.420Z,19.70
2018-06-27T19:26:22.486Z,19.60
2018-06-27T19:28:50.429Z,19.60
2018-06-27T19:31:18.328Z,19.60
2018-06-27T19:33:46.239Z,19.50
2018-06-27T19:36:14.072Z,19.50
2018-06-27T19:38:43.387Z,19.40
2018-06-27T19:41:11.420Z,19.40
2018-06-27T19:43:39.268Z,19.30
2018-06-27T19:46:07.191Z,19.20
2018-06-27T19:48:35.035Z,19.20
2018-06-27T19:51:02.942Z,19.20
2018-06-27T19:53:30.847Z,19.10
2018-06-27T19:55:58.787Z,19.00
2018-06-27T19:58:26.678Z,19.00
2018-06-27T20:00:54.483Z,18.90
2018-06-27T20:03:22.428Z,18.80
2018-06-27T20:05:50.267Z,18.70
2018-06-27T20:08:18.126Z,18.70
2018-06-27T20:10:46.064Z,18.60
2018-06-27T20:13:14.063Z,18.50
2018-06-27T20:15:41.887Z,18.50
2018-06-27T20:18:09.729Z,18.40
2018-06-27T20:20:37.584Z,18.40
2018-06-27T20:23:05.559Z,18.30
2018-06-27T20:25:33.396Z,18.30
2018-06-27T20:28:01.269Z,18.30
2018-06-27T20:30:29.362Z,18.20
2018-06-27T20:32:57.256Z,18.10
2018-06-27T20:35:25.573Z,18.10
2018-06-27T20:37:53.489Z,18.10
2018-06-27T20:40:21.334Z,18.00
2018-06-27T20:42:52.449Z,18.00
2018-06-27T20:45:20.444Z,18.00
2018-06-27T20:47:52.428Z,18.10
2018-06-27T20:50:21.554Z,18.20
2018-06-27T20:52:49.392Z,18.20
2018-06-27T20:55:20.063Z,18.20
2018-06-27T20:57:48.665Z,18.20
2018-06-27T21:00:16.703Z,18.20
2018-06-27T21:02:44.500Z,18.20
2018-06-27T21:05:12.348Z,18.30
2018-06-27T21:07:40.126Z,18.30
2018-06-27T21:10:07.931Z,18.30
2018-06-27T21:12:35.757Z,18.30
2018-06-27T21:15:24.686Z,18.20
2018-06-27T21:18:18.886Z,18.20
2018-06-27T21:20:46.737Z,18.20
2018-06-27T21:23:14.533Z,18.10
2018-06-27T21:25:42.345Z,18.10
2018-06-27T21:28:10.167Z,18.10
2018-06-27T21:30:37.944Z,18.10
2018-06-27T21:33:05.816Z,18.00
2018-06-27T21:35:34.152Z,18.00
2018-06-27T21:38:01.885Z,18.00
2018-06-27T21:40:29.697Z,18.00
2018-06-27T21:42:57.482Z,18.00
2018-06-27T21:45:25.356Z,18.00
2018-06-27T21:47:53.150Z,18.00
2018-06-27T21:50:21.081Z,17.90
2018-06-27T21:52:48.846Z,17.90
2018-06-27T21:55:16.666Z,17.90
2018-06-27T21:57:44.614Z,18.00
2018-06-27T22:00:12.562Z,18.00
2018-06-27T22:02:40.410Z,18.00
2018-06-27T22:05:08.333Z,18.00
2018-06-27T22:07:36.091Z,18.00
2018-06-27T22:10:04.003Z,18.10
2018-06-27T22:12:33.785Z,18.10
2018-06-27T22:15:01.638Z,18.10
2018-06-27T22:17:29.476Z,18.10
2018-06-27T22:19:57.218Z,18.00
2018-06-27T22:22:24.971Z,18.00
2018-06-27T22:24:52.787Z,18.10
2018-06-27T22:27:20.580Z,18.10
2018-06-27T22:29:48.512Z,18.00
2018-06-27T22:32:16.316Z,18.00
2018-06-27T22:34:44.123Z,18.00
2018-06-27T22:37:11.909Z,18.10
2018-06-27T22:40:03.408Z,18.10
2018-06-27T22:42:31.412Z,18.20
2018-06-27T22:44:59.446Z,18.20
2018-06-27T22:47:27.232Z,18.20
2018-06-27T22:49:55.080Z,18.20
2018-06-27T22:52:22.881Z,18.20
2018-06-27T22:54:50.631Z,18.20
2018-06-27T22:57:18.394Z,18.30
2018-06-27T22:59:46.117Z,18.30
2018-06-27T23:02:13.945Z,18.40
2018-06-27T23:04:41.696Z,18.50
2018-06-27T23:07:09.474Z,18.40
2018-06-27T23:09:39.359Z,18.40
2018-06-27T23:12:07.361Z,18.40
2018-06-27T23:14:35.132Z,18.40
2018-06-27T23:17:03.350Z,18.50
2018-06-27T23:19:31.115Z,18.50
2018-06-27T23:21:58.881Z,18.50
2018-06-27T23:24:26.662Z,18.60
2018-06-27T23:26:54.483Z,18.50
2018-06-27T23:29:22.286Z,18.40
2018-06-27T23:31:50.161Z,18.30
2018-06-27T23:34:17.921Z,18.30
2018-06-27T23:36:45.677Z,18.30
2018-06-27T23:39:13.519Z,18.30
2018-06-27T23:41:42.212Z,18.40
2018-06-27T23:44:10.074Z,18.40
2018-06-27T23:46:38.022Z,18.30
2018-06-27T23:49:06.205Z,18.40
2018-06-27T23:51:33.986Z,18.30
2018-06-27T23:54:18.760Z,18.30
2018-06-27T23:57:29.985Z,18.30
2018-06-27T23:59:57.877Z,18.20
